sensor_id;sensor_type;location;lat;lon;timestamp;pressure;altitude;pressure_sealevel;temperature;humidity
9839;BME280;4958;48.150;11.506;2023-02-10T00:01:29;97258.38;;;1.15;63.38
9839;BME280;4958;48.150;11.506;2023-02-10T00:03:56;97267.44;;;1.19;62.88
9839;BME280;4958;48.150;11.506;2023-02-10T00:06:24;97270.78;;;1.19;63.23
9839;BME280;4958;48.150;11.506;2023-02-10T00:08:52;97269.66;;;1.25;62.96
9839;BME280;4958;48.150;11.506;2023-02-10T00:11:20;97273.69;;;1.29;62.87
9839;BME280;4958;48.150;11.506;2023-02-10T00:14:09;97278.84;;;1.27;62.40
9839;BME280;4958;48.150;11.506;2023-02-10T00:16:36;97275.63;;;1.24;62.59
9839;BME280;4958;48.150;11.506;2023-02-10T00:19:03;97284.97;;;1.23;63.14
9839;BME280;4958;48.150;11.506;2023-02-10T00:21:29;97280.78;;;1.22;63.23
9839;BME280;4958;48.150;11.506;2023-02-10T00:23:56;97281.53;;;1.24;62.66
9839;BME280;4958;48.150;11.506;2023-02-10T00:26:22;97285.56;;;1.28;62.96
9839;BME280;4958;48.150;11.506;2023-02-10T00:28:49;97283.63;;;1.33;62.47
9839;BME280;4958;48.150;11.506;2023-02-10T00:31:18;97295.72;;;1.28;62.98
9839;BME280;4958;48.150;11.506;2023-02-10T00:33:46;97304.00;;;1.32;62.85
9839;BME280;4958;48.150;11.506;2023-02-10T00:36:14;97308.19;;;1.33;62.60
9839;BME280;4958;48.150;11.506;2023-02-10T00:38:42;97309.81;;;1.34;62.91
9839;BME280;4958;48.150;11.506;2023-02-10T00:41:10;97298.84;;;1.33;62.83
9839;BME280;4958;48.150;11.506;2023-02-10T00:43:37;97299.66;;;1.34;62.72
9839;BME280;4958;48.150;11.506;2023-02-10T00:46:04;97317.44;;;1.34;62.96
9839;BME280;4958;48.150;11.506;2023-02-10T00:48:33;97315.94;;;1.30;62.90
9839;BME280;4958;48.150;11.506;2023-02-10T00:50:59;97312.50;;;1.31;63.22
9839;BME280;4958;48.150;11.506;2023-02-10T00:53:26;97316.75;;;1.30;63.10
9839;BME280;4958;48.150;11.506;2023-02-10T00:55:52;97319.38;;;1.29;63.34
9839;BME280;4958;48.150;11.506;2023-02-10T00:58:20;97317.66;;;1.29;63.60
9839;BME280;4958;48.150;11.506;2023-02-10T01:00:47;97323.69;;;1.27;63.92
9839;BME280;4958;48.150;11.506;2023-02-10T01:03:14;97315.94;;;1.30;63.97
9839;BME280;4958;48.150;11.506;2023-02-10T01:05:42;97324.44;;;1.29;63.70
9839;BME280;4958;48.150;11.506;2023-02-10T01:08:10;97326.09;;;1.30;63.98
9839;BME280;4958;48.150;11.506;2023-02-10T01:10:36;97328.63;;;1.30;63.92
9839;BME280;4958;48.150;11.506;2023-02-10T01:13:04;97326.16;;;1.28;63.73
9839;BME280;4958;48.150;11.506;2023-02-10T01:15:31;97331.00;;;1.33;63.47
9839;BME280;4958;48.150;11.506;2023-02-10T01:17:57;97333.69;;;1.30;63.72
9839;BME280;4958;48.150;11.506;2023-02-10T01:20:25;97333.03;;;1.26;63.74
9839;BME280;4958;48.150;11.506;2023-02-10T01:22:53;97333.41;;;1.19;63.97
9839;BME280;4958;48.150;11.506;2023-02-10T01:25:19;97337.91;;;1.14;64.21
9839;BME280;4958;48.150;11.506;2023-02-10T01:27:45;97335.78;;;1.22;63.63
9839;BME280;4958;48.150;11.506;2023-02-10T01:30:12;97333.03;;;1.26;63.60
9839;BME280;4958;48.150;11.506;2023-02-10T01:32:39;97334.59;;;1.29;63.51
9839;BME280;4958;48.150;11.506;2023-02-10T01:35:05;97333.63;;;1.31;63.61
9839;BME280;4958;48.150;11.506;2023-02-10T01:37:33;97324.88;;;1.37;63.02
9839;BME280;4958;48.150;11.506;2023-02-10T01:40:03;97331.56;;;1.38;63.02
9839;BME280;4958;48.150;11.506;2023-02-10T01:42:30;97328.16;;;1.39;62.94
9839;BME280;4958;48.150;11.506;2023-02-10T01:45:22;97338.38;;;1.37;63.37
9839;BME280;4958;48.150;11.506;2023-02-10T01:47:51;97342.56;;;1.38;62.85
9839;BME280;4958;48.150;11.506;2023-02-10T01:50:20;97348.53;;;1.37;62.58
9839;BME280;4958;48.150;11.506;2023-02-10T01:52:48;97357.09;;;1.35;62.85
9839;BME280;4958;48.150;11.506;2023-02-10T01:55:19;97360.47;;;1.35;63.13
9839;BME280;4958;48.150;11.506;2023-02-10T01:57:47;97353.03;;;1.32;63.08
9839;BME280;4958;48.150;11.506;2023-02-10T02:00:19;97352.34;;;1.29;63.15
9839;BME280;4958;48.150;11.506;2023-02-10T02:02:46;97350.03;;;1.24;62.81
9839;BME280;4958;48.150;11.506;2023-02-10T02:05:27;97352.72;;;1.21;63.33
9839;BME280;4958;48.150;11.506;2023-02-10T02:07:56;97354.50;;;1.19;63.07
9839;BME280;4958;48.150;11.506;2023-02-10T02:10:32;97353.69;;;1.19;63.13
9839;BME280;4958;48.150;11.506;2023-02-10T02:13:04;97358.00;;;1.17;63.23
9839;BME280;4958;48.150;11.506;2023-02-10T02:15:37;97356.22;;;1.19;63.28
9839;BME280;4958;48.150;11.506;2023-02-10T02:18:12;97371.31;;;1.22;63.02
9839;BME280;4958;48.150;11.506;2023-02-10T02:20:58;97368.75;;;1.22;62.76
9839;BME280;4958;48.150;11.506;2023-02-10T02:24:03;97370.41;;;1.23;63.09
9839;BME280;4958;48.150;11.506;2023-02-10T02:26:55;97369.81;;;1.18;62.77
9839;BME280;4958;48.150;11.506;2023-02-10T02:29:39;97366.00;;;1.09;63.07
9839;BME280;4958;48.150;11.506;2023-02-10T02:32:14;97373.09;;;1.02;63.54
9839;BME280;4958;48.150;11.506;2023-02-10T02:34:48;97373.22;;;0.99;63.18
9839;BME280;4958;48.150;11.506;2023-02-10T02:37:18;97366.44;;;1.00;63.50
9839;BME280;4958;48.150;11.506;2023-02-10T02:39:48;97374.38;;;0.94;63.62
9839;BME280;4958;48.150;11.506;2023-02-10T02:42:17;97380.09;;;0.97;63.31
9839;BME280;4958;48.150;11.506;2023-02-10T02:44:46;97372.41;;;0.99;63.16
9839;BME280;4958;48.150;11.506;2023-02-10T02:47:26;97381.66;;;1.00;63.32
9839;BME280;4958;48.150;11.506;2023-02-10T02:50:03;97376.59;;;1.00;63.00
9839;BME280;4958;48.150;11.506;2023-02-10T02:52:43;97374.38;;;0.94;63.21
9839;BME280;4958;48.150;11.506;2023-02-10T02:55:22;97369.59;;;0.88;63.28
9839;BME280;4958;48.150;11.506;2023-02-10T02:57:56;97369.78;;;0.83;63.89
9839;BME280;4958;48.150;11.506;2023-02-10T03:00:27;97373.97;;;0.84;63.75
9839;BME280;4958;48.150;11.506;2023-02-10T03:02:55;97367.03;;;0.88;63.48
9839;BME280;4958;48.150;11.506;2023-02-10T03:05:27;97369.28;;;0.94;63.37
9839;BME280;4958;48.150;11.506;2023-02-10T03:07:54;97366.50;;;0.98;63.45
9839;BME280;4958;48.150;11.506;2023-02-10T03:10:21;97365.56;;;1.01;63.20
9839;BME280;4958;48.150;11.506;2023-02-10T03:12:48;97363.91;;;1.00;62.87
9839;BME280;4958;48.150;11.506;2023-02-10T03:15:15;97359.66;;;1.00;62.69
9839;BME280;4958;48.150;11.506;2023-02-10T03:17:42;97370.25;;;0.91;63.08
9839;BME280;4958;48.150;11.506;2023-02-10T03:20:10;97371.84;;;0.94;62.84
9839;BME280;4958;48.150;11.506;2023-02-10T03:22:37;97371.84;;;0.94;63.25
9839;BME280;4958;48.150;11.506;2023-02-10T03:25:04;97366.44;;;1.00;62.86
9839;BME280;4958;48.150;11.506;2023-02-10T03:27:31;97369.81;;;1.00;63.05
9839;BME280;4958;48.150;11.506;2023-02-10T03:29:57;97372.13;;;1.05;62.73
9839;BME280;4958;48.150;11.506;2023-02-10T03:32:24;97362.06;;;1.03;62.70
9839;BME280;4958;48.150;11.506;2023-02-10T03:34:50;97377.13;;;1.07;62.62
9839;BME280;4958;48.150;11.506;2023-02-10T03:37:18;97371.91;;;1.10;62.37
9839;BME280;4958;48.150;11.506;2023-02-10T03:39:44;97376.91;;;1.11;62.11
9839;BME280;4958;48.150;11.506;2023-02-10T03:42:12;97383.69;;;1.11;62.16
9839;BME280;4958;48.150;11.506;2023-02-10T03:44:39;97380.34;;;1.10;62.20
9839;BME280;4958;48.150;11.506;2023-02-10T03:47:05;97386.31;;;1.09;61.94
9839;BME280;4958;48.150;11.506;2023-02-10T03:49:31;97386.31;;;1.09;62.36
9839;BME280;4958;48.150;11.506;2023-02-10T03:51:58;97387.13;;;1.10;62.13
9839;BME280;4958;48.150;11.506;2023-02-10T03:54:26;97391.53;;;1.06;62.41
9839;BME280;4958;48.150;11.506;2023-02-10T03:56:52;97385.03;;;1.00;62.21
9839;BME280;4958;48.150;11.506;2023-02-10T03:59:19;97379.13;;;1.00;61.96
9839;BME280;4958;48.150;11.506;2023-02-10T04:01:45;97377.56;;;0.97;62.27
9839;BME280;4958;48.150;11.506;2023-02-10T04:04:12;97377.56;;;0.97;62.39
9839;BME280;4958;48.150;11.506;2023-02-10T04:06:38;97375.03;;;0.97;62.19
9839;BME280;4958;48.150;11.506;2023-02-10T04:09:04;97377.78;;;0.93;62.39
9839;BME280;4958;48.150;11.506;2023-02-10T04:11:32;97377.94;;;0.90;62.32
9839;BME280;4958;48.150;11.506;2023-02-10T04:13:59;97373.53;;;0.93;62.22
9839;BME280;4958;48.150;11.506;2023-02-10T04:16:25;97374.44;;;0.92;62.37
9839;BME280;4958;48.150;11.506;2023-02-10T04:18:53;97392.19;;;0.92;62.22
9839;BME280;4958;48.150;11.506;2023-02-10T04:21:19;97393.91;;;0.92;62.70
9839;BME280;4958;48.150;11.506;2023-02-10T04:23:46;97393.84;;;0.93;62.20
9839;BME280;4958;48.150;11.506;2023-02-10T04:26:12;97387.78;;;0.96;62.07
9839;BME280;4958;48.150;11.506;2023-02-10T04:28:40;97391.06;;;0.98;61.98
9839;BME280;4958;48.150;11.506;2023-02-10T04:31:06;97391.81;;;1.00;62.29
9839;BME280;4958;48.150;11.506;2023-02-10T04:33:35;97395.03;;;1.03;61.95
9839;BME280;4958;48.150;11.506;2023-02-10T04:36:02;97400.78;;;1.07;61.94
9839;BME280;4958;48.150;11.506;2023-02-10T04:38:29;97393.53;;;0.99;62.08
9839;BME280;4958;48.150;11.506;2023-02-10T04:40:56;97403.53;;;1.02;62.17
9839;BME280;4958;48.150;11.506;2023-02-10T04:43:22;97411.13;;;1.02;62.00
9839;BME280;4958;48.150;11.506;2023-02-10T04:45:50;97404.41;;;1.01;61.81
9839;BME280;4958;48.150;11.506;2023-02-10T04:48:17;97399.41;;;1.00;61.66
9839;BME280;4958;48.150;11.506;2023-02-10T04:50:44;97410.25;;;1.03;62.01
9839;BME280;4958;48.150;11.506;2023-02-10T04:53:11;97406.94;;;1.01;61.97
9839;BME280;4958;48.150;11.506;2023-02-10T04:55:37;97409.81;;;0.95;61.80
9839;BME280;4958;48.150;11.506;2023-02-10T04:58:04;97410.16;;;0.88;62.15
9839;BME280;4958;48.150;11.506;2023-02-10T05:00:30;97410.22;;;0.86;62.04
9839;BME280;4958;48.150;11.506;2023-02-10T05:02:58;97407.06;;;0.81;62.34
9839;BME280;4958;48.150;11.506;2023-02-10T05:05:25;97406.31;;;0.79;62.27
9839;BME280;4958;48.150;11.506;2023-02-10T05:07:52;97403.34;;;0.71;62.26
9839;BME280;4958;48.150;11.506;2023-02-10T05:10:19;97402.84;;;0.63;62.37
9839;BME280;4958;48.150;11.506;2023-02-10T05:12:46;97404.94;;;0.55;62.85
9839;BME280;4958;48.150;11.506;2023-02-10T05:15:13;97415.16;;;0.53;62.77
9839;BME280;4958;48.150;11.506;2023-02-10T05:17:39;97420.53;;;0.46;62.60
9839;BME280;4958;48.150;11.506;2023-02-10T05:20:08;97427.13;;;0.50;62.59
9839;BME280;4958;48.150;11.506;2023-02-10T05:22:35;97426.03;;;0.37;62.79
9839;BME280;4958;48.150;11.506;2023-02-10T05:25:01;97428.78;;;0.32;63.39
9839;BME280;4958;48.150;11.506;2023-02-10T05:27:28;97427.88;;;0.14;63.93
9839;BME280;4958;48.150;11.506;2023-02-10T05:29:54;97432.56;;;0.03;64.25
9839;BME280;4958;48.150;11.506;2023-02-10T05:32:21;97435.78;;;0.07;63.76
9839;BME280;4958;48.150;11.506;2023-02-10T05:34:47;97434.97;;;0.06;63.74
9839;BME280;4958;48.150;11.506;2023-02-10T05:37:15;97451.25;;;0.00;64.01
9839;BME280;4958;48.150;11.506;2023-02-10T05:39:42;97438.47;;;0.04;64.17
9839;BME280;4958;48.150;11.506;2023-02-10T05:42:08;97449.34;;;0.06;64.14
9839;BME280;4958;48.150;11.506;2023-02-10T05:44:35;97452.75;;;0.05;64.40
9839;BME280;4958;48.150;11.506;2023-02-10T05:47:01;97450.22;;;0.05;64.45
9839;BME280;4958;48.150;11.506;2023-02-10T05:49:28;97444.97;;;0.09;64.10
9839;BME280;4958;48.150;11.506;2023-02-10T05:51:54;97447.25;;;0.15;64.04
9839;BME280;4958;48.150;11.506;2023-02-10T05:54:22;97446.97;;;0.21;63.76
9839;BME280;4958;48.150;11.506;2023-02-10T05:56:49;97456.75;;;0.10;64.16
9839;BME280;4958;48.150;11.506;2023-02-10T05:59:17;97463.47;;;0.11;64.33
9839;BME280;4958;48.150;11.506;2023-02-10T06:01:45;97473.47;;;0.14;63.93
9839;BME280;4958;48.150;11.506;2023-02-10T06:04:11;97470.19;;;0.12;64.01
9839;BME280;4958;48.150;11.506;2023-02-10T06:06:38;97476.69;;;0.18;64.59
9839;BME280;4958;48.150;11.506;2023-02-10T06:09:07;97484.28;;;0.18;64.05
9839;BME280;4958;48.150;11.506;2023-02-10T06:11:35;97476.53;;;0.21;64.23
9839;BME280;4958;48.150;11.506;2023-02-10T06:14:01;97480.53;;;0.26;64.16
9839;BME280;4958;48.150;11.506;2023-02-10T06:16:28;97469.50;;;0.27;64.32
9839;BME280;4958;48.150;11.506;2023-02-10T06:18:54;97470.38;;;0.26;64.40
9839;BME280;4958;48.150;11.506;2023-02-10T06:21:21;97482.22;;;0.26;64.32
9839;BME280;4958;48.150;11.506;2023-02-10T06:23:51;97484.00;;;0.24;69.39
9839;BME280;4958;48.150;11.506;2023-02-10T06:26:18;97482.78;;;0.32;70.02
9839;BME280;4958;48.150;11.506;2023-02-10T06:28:46;97483.69;;;0.31;69.99
9839;BME280;4958;48.150;11.506;2023-02-10T06:31:12;97488.56;;;0.36;68.48
9839;BME280;4958;48.150;11.506;2023-02-10T06:33:39;97492.88;;;0.34;70.13
9839;BME280;4958;48.150;11.506;2023-02-10T06:36:06;97489.03;;;0.44;67.44
9839;BME280;4958;48.150;11.506;2023-02-10T06:38:34;97494.72;;;0.49;66.89
9839;BME280;4958;48.150;11.506;2023-02-10T06:41:00;97497.88;;;0.54;65.52
9839;BME280;4958;48.150;11.506;2023-02-10T06:43:27;97491.16;;;0.53;65.23
9839;BME280;4958;48.150;11.506;2023-02-10T06:45:55;97494.47;;;0.55;65.16
9839;BME280;4958;48.150;11.506;2023-02-10T06:48:21;97502.06;;;0.55;64.77
9839;BME280;4958;48.150;11.506;2023-02-10T06:50:48;97502.00;;;0.57;64.92
9839;BME280;4958;48.150;11.506;2023-02-10T06:53:14;97506.97;;;0.58;64.49
9839;BME280;4958;48.150;11.506;2023-02-10T06:55:41;97514.44;;;0.61;64.61
9839;BME280;4958;48.150;11.506;2023-02-10T06:58:08;97506.03;;;0.61;65.41
9839;BME280;4958;48.150;11.506;2023-02-10T07:00:35;97511.91;;;0.61;64.62
9839;BME280;4958;48.150;11.506;2023-02-10T07:03:03;97511.22;;;0.58;65.40
9839;BME280;4958;48.150;11.506;2023-02-10T07:05:29;97519.56;;;0.60;67.26
9839;BME280;4958;48.150;11.506;2023-02-10T07:07:56;97518.22;;;0.72;66.09
9839;BME280;4958;48.150;11.506;2023-02-10T07:10:24;97527.03;;;1.00;64.26
9839;BME280;4958;48.150;11.506;2023-02-10T07:12:51;97520.91;;;1.23;63.04
9839;BME280;4958;48.150;11.506;2023-02-10T07:15:17;97516.25;;;1.33;62.43
9839;BME280;4958;48.150;11.506;2023-02-10T07:17:47;97532.25;;;1.52;61.79
9839;BME280;4958;48.150;11.506;2023-02-10T07:20:17;97533.66;;;1.75;61.51
9839;BME280;4958;48.150;11.506;2023-02-10T07:22:43;97538.53;;;1.97;60.19
9839;BME280;4958;48.150;11.506;2023-02-10T07:25:10;97542.78;;;2.31;59.33
9839;BME280;4958;48.150;11.506;2023-02-10T07:27:36;97542.25;;;2.57;58.70
9839;BME280;4958;48.150;11.506;2023-02-10T07:30:03;97536.47;;;2.87;57.95
9839;BME280;4958;48.150;11.506;2023-02-10T07:32:30;97536.94;;;3.09;56.35
9839;BME280;4958;48.150;11.506;2023-02-10T07:34:56;97529.56;;;3.20;55.96
9839;BME280;4958;48.150;11.506;2023-02-10T07:37:24;97535.53;;;3.51;56.01
9839;BME280;4958;48.150;11.506;2023-02-10T07:39:51;97536.97;;;3.70;54.91
9839;BME280;4958;48.150;11.506;2023-02-10T07:42:18;97544.94;;;3.94;54.10
9839;BME280;4958;48.150;11.506;2023-02-10T07:44:44;97540.91;;;4.20;53.49
9839;BME280;4958;48.150;11.506;2023-02-10T07:47:11;97542.25;;;4.26;53.44
9839;BME280;4958;48.150;11.506;2023-02-10T07:49:37;97549.22;;;4.38;52.33
9839;BME280;4958;48.150;11.506;2023-02-10T07:52:04;97547.84;;;4.46;53.06
9839;BME280;4958;48.150;11.506;2023-02-10T07:54:32;97549.22;;;4.38;52.31
9839;BME280;4958;48.150;11.506;2023-02-10T07:56:58;97556.50;;;4.44;52.10
9839;BME280;4958;48.150;11.506;2023-02-10T07:59:25;97552.78;;;4.49;51.82
9839;BME280;4958;48.150;11.506;2023-02-10T08:01:51;97561.88;;;4.68;52.21
9839;BME280;4958;48.150;11.506;2023-02-10T08:04:18;97557.94;;;4.91;51.74
9839;BME280;4958;48.150;11.506;2023-02-10T08:06:45;97564.31;;;5.12;51.53
9839;BME280;4958;48.150;11.506;2023-02-10T08:09:11;97560.25;;;5.22;50.85
9839;BME280;4958;48.150;11.506;2023-02-10T08:11:39;97563.28;;;5.29;50.60
9839;BME280;4958;48.150;11.506;2023-02-10T08:14:05;97561.88;;;5.37;50.53
9839;BME280;4958;48.150;11.506;2023-02-10T08:16:32;97557.13;;;5.58;50.49
9839;BME280;4958;48.150;11.506;2023-02-10T08:18:58;97556.22;;;5.59;49.85
9839;BME280;4958;48.150;11.506;2023-02-10T08:21:26;97549.00;;;5.66;49.57
9839;BME280;4958;48.150;11.506;2023-02-10T08:23:54;97547.78;;;5.71;49.45
9839;BME280;4958;48.150;11.506;2023-02-10T08:26:22;97549.75;;;5.80;49.65
9839;BME280;4958;48.150;11.506;2023-02-10T08:28:50;97559.03;;;5.96;49.06
9839;BME280;4958;48.150;11.506;2023-02-10T08:31:20;97554.66;;;6.23;48.92
9839;BME280;4958;48.150;11.506;2023-02-10T08:33:47;97550.78;;;6.43;48.34
9839;BME280;4958;48.150;11.506;2023-02-10T08:36:16;97557.75;;;6.41;47.15
9839;BME280;4958;48.150;11.506;2023-02-10T08:38:43;97563.56;;;6.55;47.46
9839;BME280;4958;48.150;11.506;2023-02-10T08:41:10;97554.88;;;6.71;46.90
9839;BME280;4958;48.150;11.506;2023-02-10T08:43:36;97558.97;;;6.73;46.82
9839;BME280;4958;48.150;11.506;2023-02-10T08:46:04;97561.31;;;6.76;46.95
9839;BME280;4958;48.150;11.506;2023-02-10T08:48:32;97559.56;;;6.89;47.20
9839;BME280;4958;48.150;11.506;2023-02-10T08:50:59;97550.94;;;7.03;47.09
9839;BME280;4958;48.150;11.506;2023-02-10T08:53:26;97548.25;;;7.05;46.26
9839;BME280;4958;48.150;11.506;2023-02-10T08:55:56;97558.00;;;7.00;46.25
9839;BME280;4958;48.150;11.506;2023-02-10T08:58:23;97555.66;;;6.97;46.30
9839;BME280;4958;48.150;11.506;2023-02-10T09:00:49;97552.97;;;7.11;46.70
9839;BME280;4958;48.150;11.506;2023-02-10T09:03:17;97555.63;;;7.09;46.20
9839;BME280;4958;48.150;11.506;2023-02-10T09:05:44;97547.50;;;7.15;46.36
9839;BME280;4958;48.150;11.506;2023-02-10T09:08:11;97554.28;;;7.16;45.82
9839;BME280;4958;48.150;11.506;2023-02-10T09:10:38;97559.59;;;7.13;46.16
9839;BME280;4958;48.150;11.506;2023-02-10T09:13:04;97559.72;;;7.12;46.01
9839;BME280;4958;48.150;11.506;2023-02-10T09:15:33;97565.22;;;7.18;46.35
9839;BME280;4958;48.150;11.506;2023-02-10T09:18:02;97568.19;;;7.25;45.73
9839;BME280;4958;48.150;11.506;2023-02-10T09:20:30;97562.91;;;7.39;46.20
9839;BME280;4958;48.150;11.506;2023-02-10T09:22:56;97559.94;;;7.33;45.96
9839;BME280;4958;48.150;11.506;2023-02-10T09:25:23;97565.53;;;7.14;46.34
9839;BME280;4958;48.150;11.506;2023-02-10T09:27:51;97561.53;;;7.22;45.98
9839;BME280;4958;48.150;11.506;2023-02-10T09:30:18;97566.66;;;7.22;45.54
9839;BME280;4958;48.150;11.506;2023-02-10T09:32:44;97570.09;;;7.34;46.30
9839;BME280;4958;48.150;11.506;2023-02-10T09:35:11;97573.78;;;7.43;45.54
9839;BME280;4958;48.150;11.506;2023-02-10T09:37:39;97567.41;;;7.48;45.48
9839;BME280;4958;48.150;11.506;2023-02-10T09:40:06;97573.50;;;7.58;46.06
9839;BME280;4958;48.150;11.506;2023-02-10T09:42:41;97579.56;;;7.57;45.45
9839;BME280;4958;48.150;11.506;2023-02-10T09:45:15;97575.84;;;7.61;45.54
9839;BME280;4958;48.150;11.506;2023-02-10T09:47:48;97577.06;;;7.69;45.49
9839;BME280;4958;48.150;11.506;2023-02-10T09:50:26;97581.13;;;7.71;45.27
9839;BME280;4958;48.150;11.506;2023-02-10T09:53:03;97585.28;;;7.85;45.21
9839;BME280;4958;48.150;11.506;2023-02-10T09:55:34;97589.75;;;7.94;45.56
9839;BME280;4958;48.150;11.506;2023-02-10T09:58:08;97583.19;;;7.90;45.53
9839;BME280;4958;48.150;11.506;2023-02-10T10:00:39;97580.41;;;7.93;45.10
9839;BME280;4958;48.150;11.506;2023-02-10T10:03:09;97585.31;;;7.96;45.25
9839;BME280;4958;48.150;11.506;2023-02-10T10:05:44;97574.31;;;7.83;45.90
9839;BME280;4958;48.150;11.506;2023-02-10T10:08:18;97570.72;;;7.85;45.47
9839;BME280;4958;48.150;11.506;2023-02-10T10:10:49;97571.53;;;7.86;45.45
9839;BME280;4958;48.150;11.506;2023-02-10T10:13:21;97578.00;;;8.03;46.06
9839;BME280;4958;48.150;11.506;2023-02-10T10:15:57;97572.56;;;8.07;44.97
9839;BME280;4958;48.150;11.506;2023-02-10T10:18:34;97574.03;;;7.98;45.38
9839;BME280;4958;48.150;11.506;2023-02-10T10:21:09;97571.13;;;8.03;45.38
9839;BME280;4958;48.150;11.506;2023-02-10T10:23:49;97561.47;;;8.07;45.20
9839;BME280;4958;48.150;11.506;2023-02-10T10:26:32;97561.34;;;8.08;44.98
9839;BME280;4958;48.150;11.506;2023-02-10T10:29:13;97564.38;;;8.13;45.13
9839;BME280;4958;48.150;11.506;2023-02-10T10:31:45;97559.25;;;8.13;45.23
9839;BME280;4958;48.150;11.506;2023-02-10T10:34:16;97555.44;;;8.19;45.23
9839;BME280;4958;48.150;11.506;2023-02-10T10:36:44;97556.59;;;8.15;45.51
9839;BME280;4958;48.150;11.506;2023-02-10T10:39:18;97548.09;;;8.25;44.71
9839;BME280;4958;48.150;11.506;2023-02-10T10:41:50;97547.84;;;8.28;45.07
9839;BME280;4958;48.150;11.506;2023-02-10T10:44:17;97551.34;;;8.27;45.06
9839;BME280;4958;48.150;11.506;2023-02-10T10:46:47;97544.97;;;8.33;45.37
9839;BME280;4958;48.150;11.506;2023-02-10T10:49:15;97551.66;;;8.36;45.33
9839;BME280;4958;48.150;11.506;2023-02-10T10:51:42;97539.47;;;8.26;44.79
9839;BME280;4958;48.150;11.506;2023-02-10T10:54:15;97541.59;;;8.32;45.63
9839;BME280;4958;48.150;11.506;2023-02-10T10:56:44;97541.44;;;8.23;44.94
9839;BME280;4958;48.150;11.506;2023-02-10T10:59:15;97533.81;;;8.10;45.44
9839;BME280;4958;48.150;11.506;2023-02-10T11:01:45;97532.34;;;8.19;45.53
9839;BME280;4958;48.150;11.506;2023-02-10T11:04:14;97518.13;;;8.26;45.50
9839;BME280;4958;48.150;11.506;2023-02-10T11:06:43;97509.88;;;8.34;45.57
9839;BME280;4958;48.150;11.506;2023-02-10T11:09:26;97513.50;;;8.42;45.67
9839;BME280;4958;48.150;11.506;2023-02-10T11:12:01;97502.88;;;8.47;44.71
9839;BME280;4958;48.150;11.506;2023-02-10T11:14:28;97507.22;;;8.46;45.09
9839;BME280;4958;48.150;11.506;2023-02-10T11:17:02;97500.84;;;8.28;44.72
9839;BME280;4958;48.150;11.506;2023-02-10T11:19:32;97495.72;;;8.17;44.96
9839;BME280;4958;48.150;11.506;2023-02-10T11:22:00;97487.53;;;8.01;45.22
9839;BME280;4958;48.150;11.506;2023-02-10T11:24:30;97491.72;;;8.13;45.41
9839;BME280;4958;48.150;11.506;2023-02-10T11:27:00;97487.44;;;8.24;45.42
9839;BME280;4958;48.150;11.506;2023-02-10T11:29:30;97482.66;;;8.31;44.83
9839;BME280;4958;48.150;11.506;2023-02-10T11:31:57;97488.53;;;8.44;44.73
9839;BME280;4958;48.150;11.506;2023-02-10T11:34:26;97479.91;;;8.45;44.33
9839;BME280;4958;48.150;11.506;2023-02-10T11:36:55;97482.81;;;8.52;44.75
9839;BME280;4958;48.150;11.506;2023-02-10T11:39:25;97480.34;;;8.50;44.69
9839;BME280;4958;48.150;11.506;2023-02-10T11:41:54;97479.75;;;8.47;45.07
9839;BME280;4958;48.150;11.506;2023-02-10T11:44:27;97470.56;;;8.55;44.15
9839;BME280;4958;48.150;11.506;2023-02-10T11:46:55;97478.50;;;8.52;43.97
9839;BME280;4958;48.150;11.506;2023-02-10T11:49:22;97471.13;;;8.48;44.25
9839;BME280;4958;48.150;11.506;2023-02-10T11:51:53;97473.56;;;8.27;44.25
9839;BME280;4958;48.150;11.506;2023-02-10T11:54:21;97466.44;;;8.30;44.71
9839;BME280;4958;48.150;11.506;2023-02-10T11:56:58;97466.13;;;8.35;44.50
9839;BME280;4958;48.150;11.506;2023-02-10T11:59:48;97455.28;;;8.43;44.33
9839;BME280;4958;48.150;11.506;2023-02-10T12:02:27;97459.00;;;8.39;44.05
9839;BME280;4958;48.150;11.506;2023-02-10T12:05:07;97448.53;;;8.42;43.83
9839;BME280;4958;48.150;11.506;2023-02-10T12:07:48;97446.06;;;8.40;44.64
9839;BME280;4958;48.150;11.506;2023-02-10T12:10:23;97457.03;;;8.53;44.70
9839;BME280;4958;48.150;11.506;2023-02-10T12:12:59;97456.56;;;8.59;44.08
9839;BME280;4958;48.150;11.506;2023-02-10T12:15:35;97451.41;;;8.71;44.10
9839;BME280;4958;48.150;11.506;2023-02-10T12:18:17;97446.50;;;8.79;43.46
9839;BME280;4958;48.150;11.506;2023-02-10T12:20:58;97438.88;;;8.88;42.83
9839;BME280;4958;48.150;11.506;2023-02-10T12:23:39;97444.34;;;8.95;42.79
9839;BME280;4958;48.150;11.506;2023-02-10T12:26:13;97443.91;;;8.90;42.95
9839;BME280;4958;48.150;11.506;2023-02-10T12:28:49;97447.00;;;9.05;42.78
9839;BME280;4958;48.150;11.506;2023-02-10T12:31:25;97451.84;;;8.87;42.00
9839;BME280;4958;48.150;11.506;2023-02-10T12:34:08;97433.16;;;8.96;41.99
9839;BME280;4958;48.150;11.506;2023-02-10T12:36:41;97438.88;;;8.99;42.42
9839;BME280;4958;48.150;11.506;2023-02-10T12:39:14;97439.06;;;9.08;41.88
9839;BME280;4958;48.150;11.506;2023-02-10T12:41:54;97431.44;;;9.17;41.65
9839;BME280;4958;48.150;11.506;2023-02-10T12:44:39;97434.72;;;9.19;41.71
9839;BME280;4958;48.150;11.506;2023-02-10T12:47:21;97442.03;;;9.24;41.06
9839;BME280;4958;48.150;11.506;2023-02-10T12:50:04;97437.28;;;9.19;41.52
9839;BME280;4958;48.150;11.506;2023-02-10T12:52:36;97438.28;;;9.28;41.83
9839;BME280;4958;48.150;11.506;2023-02-10T12:55:14;97440.03;;;9.27;41.53
9839;BME280;4958;48.150;11.506;2023-02-10T12:57:44;97427.06;;;9.29;41.20
9839;BME280;4958;48.150;11.506;2023-02-10T13:00:15;97430.63;;;9.17;41.23
9839;BME280;4958;48.150;11.506;2023-02-10T13:02:50;97431.41;;;8.96;41.02
9839;BME280;4958;48.150;11.506;2023-02-10T13:05:22;97419.84;;;8.91;40.91
9839;BME280;4958;48.150;11.506;2023-02-10T13:07:51;97422.94;;;9.06;41.80
9839;BME280;4958;48.150;11.506;2023-02-10T13:10:29;97426.63;;;9.24;41.43
9839;BME280;4958;48.150;11.506;2023-02-10T13:13:00;97424.47;;;9.40;41.20
9839;BME280;4958;48.150;11.506;2023-02-10T13:15:31;97421.31;;;9.37;40.34
9839;BME280;4958;48.150;11.506;2023-02-10T13:18:00;97425.78;;;9.34;40.39
9839;BME280;4958;48.150;11.506;2023-02-10T13:20:42;97425.28;;;9.41;40.51
9839;BME280;4958;48.150;11.506;2023-02-10T13:23:17;97417.38;;;9.53;40.69
9839;BME280;4958;48.150;11.506;2023-02-10T13:25:56;97412.81;;;9.57;40.16
9839;BME280;4958;48.150;11.506;2023-02-10T13:28:34;97408.59;;;9.56;39.75
9839;BME280;4958;48.150;11.506;2023-02-10T13:31:16;97401.25;;;9.51;38.94
9839;BME280;4958;48.150;11.506;2023-02-10T13:33:52;97408.16;;;9.51;39.71
9839;BME280;4958;48.150;11.506;2023-02-10T13:36:22;97411.34;;;9.43;39.53